Time;durP1;ratioP1;P1;durP2;ratioP2;P2;SDS_P1;SDS_P2;PMS_P1;PMS_P2;Temp;Humidity;BMP_temperature;BMP_pressure;BME280_temperature;BME280_humidity;BME280_pressure;Samples;Min_cycle;Max_cycle;Signal;HPM_P1;HPM_P2
2023/08/02 00:01:01;;;;;;;1.15;1.05;;;21.20;68.80;;;;;;5021592;28;20091;-50
2023/08/02 00:03:26;;;;;;;1.83;1.10;;;21.20;68.80;;;;;;5016076;28;20045;-50
2023/08/02 00:05:57;;;;;;;2.00;0.90;;;21.20;68.90;;;;;;5006183;28;20048;-50
2023/08/02 00:08:23;;;;;;;1.88;1.00;;;21.10;69.00;;;;;;5013411;28;20033;-49
2023/08/02 00:10:49;;;;;;;1.13;1.00;;;21.20;68.90;;;;;;5009918;28;20076;-51
2023/08/02 00:13:15;;;;;;;1.25;0.90;;;21.20;68.80;;;;;;5018148;28;20029;-49
2023/08/02 00:15:41;;;;;;;2.42;0.95;;;21.10;68.80;;;;;;5017686;28;20060;-50
2023/08/02 00:18:07;;;;;;;1.48;0.80;;;21.20;69.00;;;;;;5016600;28;20147;-49
2023/08/02 00:20:33;;;;;;;0.93;0.70;;;21.20;68.90;;;;;;5015906;28;20478;-49
2023/08/02 00:22:59;;;;;;;1.08;0.80;;;21.20;69.00;;;;;;5018791;28;20041;-48
2023/08/02 00:25:24;;;;;;;2.42;0.90;;;21.20;68.90;;;;;;5018692;28;20041;-50
2023/08/02 00:27:50;;;;;;;1.00;0.90;;;21.20;68.90;;;;;;5018006;28;21623;-52
2023/08/02 00:30:16;;;;;;;0.80;0.75;;;21.20;68.80;;;;;;5015413;28;20038;-51
2023/08/02 00:32:48;;;;;;;0.90;0.80;;;21.20;69.50;;;;;;5007714;28;20257;-51
2023/08/02 00:35:15;;;;;;;1.25;0.80;;;21.20;68.90;;;;;;5017500;28;20045;-52
2023/08/02 00:37:41;;;;;;;1.67;0.80;;;21.10;68.80;;;;;;5018972;28;20642;-51
2023/08/02 00:40:08;;;;;;;2.20;1.00;;;21.20;68.90;;;;;;5019487;28;20040;-51
2023/08/02 00:42:35;;;;;;;1.55;0.80;;;21.20;68.90;;;;;;5017843;28;20041;-50
2023/08/02 00:45:00;;;;;;;2.35;0.90;;;21.20;68.90;;;;;;5020477;28;20033;-53
2023/08/02 00:47:26;;;;;;;1.02;0.80;;;21.20;68.60;;;;;;5018511;28;20030;-50
2023/08/02 00:49:52;;;;;;;0.80;0.70;;;21.20;68.90;;;;;;5015582;28;20589;-51
2023/08/02 00:52:17;;;;;;;1.85;0.73;;;21.20;68.70;;;;;;5019407;28;20111;-51
2023/08/02 00:54:43;;;;;;;1.80;1.05;;;21.20;68.90;;;;;;5018986;28;20479;-51
2023/08/02 00:57:11;;;;;;;1.40;0.90;;;21.10;68.80;;;;;;5019822;28;20763;-50
2023/08/02 00:59:39;;;;;;;2.28;1.00;;;21.10;68.80;;;;;;5012478;28;20029;-53
2023/08/02 01:02:06;;;;;;;1.67;1.00;;;21.20;68.80;;;;;;5034578;22;20225;-50
2023/08/02 01:04:35;;;;;;;1.50;0.80;;;21.20;68.80;;;;;;5040223;28;20722;-50
2023/08/02 01:07:37;;;;;;;1.13;0.70;;;21.20;68.60;;;;;;5027451;28;20041;-54
2023/08/02 01:10:11;;;;;;;1.48;0.80;;;21.20;68.60;;;;;;5015021;28;20118;-52
2023/08/02 01:12:41;;;;;;;1.20;0.85;;;21.10;68.70;;;;;;5011657;28;20394;-51
2023/08/02 01:15:08;;;;;;;2.03;1.10;;;21.10;68.70;;;;;;5012782;28;20129;-52
2023/08/02 01:17:35;;;;;;;0.73;0.70;;;21.20;68.80;;;;;;5011690;28;20030;-51
2023/08/02 01:20:05;;;;;;;2.78;1.00;;;21.20;68.60;;;;;;5016681;28;20471;-50
2023/08/02 01:22:31;;;;;;;0.85;0.70;;;21.20;68.50;;;;;;5017813;28;20088;-51
2023/08/02 01:24:59;;;;;;;1.73;0.82;;;21.10;68.80;;;;;;5021104;28;20033;-50
2023/08/02 01:27:31;;;;;;;1.60;1.02;;;21.10;68.80;;;;;;5013086;28;20037;-52
2023/08/02 01:29:59;;;;;;;1.52;0.90;;;21.10;68.90;;;;;;5016372;28;20248;-51
2023/08/02 01:32:25;;;;;;;1.30;0.73;;;21.10;68.80;;;;;;5010937;28;20056;-50
2023/08/02 01:34:51;;;;;;;2.58;1.50;;;21.20;69.00;;;;;;4997817;28;20668;-50
2023/08/02 01:37:16;;;;;;;3.15;1.10;;;21.20;68.80;;;;;;5015954;28;20350;-50
2023/08/02 01:39:42;;;;;;;1.55;0.80;;;21.20;68.90;;;;;;5008765;28;20541;-50
2023/08/02 01:42:10;;;;;;;1.73;0.80;;;21.20;68.80;;;;;;5010415;28;20061;-51
2023/08/02 01:44:35;;;;;;;1.67;1.00;;;21.20;68.90;;;;;;5014515;28;20025;-51
2023/08/02 01:47:01;;;;;;;2.25;1.15;;;21.20;68.70;;;;;;5015004;28;20036;-51
2023/08/02 01:49:26;;;;;;;1.90;0.80;;;21.20;68.70;;;;;;5011039;28;20033;-52
2023/08/02 01:51:52;;;;;;;1.45;1.00;;;21.20;68.90;;;;;;5017407;28;20419;-53
2023/08/02 01:54:18;;;;;;;2.17;0.73;;;21.20;68.70;;;;;;5017132;28;20026;-50
2023/08/02 01:56:43;;;;;;;1.55;0.75;;;21.20;68.60;;;;;;5014842;28;20029;-51
2023/08/02 01:59:11;;;;;;;1.80;1.10;;;21.20;68.70;;;;;;5016315;28;20392;-53
2023/08/02 02:01:37;;;;;;;1.63;0.70;;;21.20;68.80;;;;;;5012998;28;20120;-52
2023/08/02 02:04:03;;;;;;;1.40;0.95;;;21.10;68.60;;;;;;5016964;28;20129;-52
2023/08/02 02:06:29;;;;;;;1.45;0.90;;;21.20;68.60;;;;;;5015273;28;20032;-55
2023/08/02 02:08:54;;;;;;;1.63;1.15;;;21.20;68.60;;;;;;5013626;28;20132;-50
2023/08/02 02:11:20;;;;;;;2.17;0.77;;;21.20;68.50;;;;;;5014144;28;20034;-51
2023/08/02 02:13:45;;;;;;;1.55;1.17;;;21.20;68.70;;;;;;5013218;28;20034;-51
2023/08/02 02:16:11;;;;;;;0.98;0.80;;;21.20;68.60;;;;;;5015214;28;20577;-52
2023/08/02 02:18:36;;;;;;;3.25;0.93;;;21.10;68.20;;;;;;5016565;28;20060;-50
2023/08/02 02:21:02;;;;;;;2.47;0.70;;;21.10;68.50;;;;;;5023779;28;20064;-51
2023/08/02 02:23:27;;;;;;;2.17;1.20;;;21.20;68.60;;;;;;5024044;28;20122;-54
2023/08/02 02:25:53;;;;;;;1.35;0.90;;;21.10;68.50;;;;;;5022251;28;20483;-51
2023/08/02 02:28:19;;;;;;;2.13;0.80;;;21.10;68.30;;;;;;5023826;28;20033;-50
2023/08/02 02:30:45;;;;;;;2.80;0.95;;;21.10;68.30;;;;;;5021265;28;20044;-50
2023/08/02 02:33:10;;;;;;;1.13;0.80;;;21.10;68.40;;;;;;5023292;28;20573;-53
2023/08/02 02:35:36;;;;;;;2.83;0.63;;;21.10;68.40;;;;;;5022097;28;20036;-54
2023/08/02 02:38:01;;;;;;;2.25;0.80;;;21.10;68.20;;;;;;5023917;28;20384;-50
2023/08/02 02:40:27;;;;;;;1.35;0.90;;;21.10;68.60;;;;;;5023095;28;20029;-52
2023/08/02 02:42:52;;;;;;;2.38;0.80;;;21.10;68.40;;;;;;5023142;28;20531;-54
2023/08/02 02:45:18;;;;;;;1.85;0.90;;;21.10;68.40;;;;;;5022261;28;20033;-53
2023/08/02 02:47:43;;;;;;;2.08;0.93;;;21.10;68.10;;;;;;5021398;28;20134;-51
2023/08/02 02:50:09;;;;;;;1.77;0.98;;;21.10;68.20;;;;;;5021456;28;20126;-50
2023/08/02 02:52:35;;;;;;;1.45;0.90;;;21.10;68.20;;;;;;5022093;28;20167;-53
2023/08/02 02:55:01;;;;;;;2.22;0.80;;;21.10;68.20;;;;;;5023333;28;20450;-50
2023/08/02 02:57:27;;;;;;;1.00;0.60;;;21.10;68.20;;;;;;5022668;28;20025;-53
2023/08/02 02:59:52;;;;;;;0.90;0.80;;;21.10;68.20;;;;;;5021651;28;20141;-54
2023/08/02 03:02:18;;;;;;;1.65;1.02;;;21.10;68.20;;;;;;5022502;28;20041;-50
2023/08/02 03:04:44;;;;;;;1.45;1.00;;;21.00;68.40;;;;;;5017518;28;20040;-51
2023/08/02 03:07:09;;;;;;;1.50;1.23;;;21.00;67.80;;;;;;5022440;28;20497;-51
2023/08/02 03:09:36;;;;;;;2.65;0.93;;;21.10;68.10;;;;;;5021142;28;20055;-51
2023/08/02 03:12:01;;;;;;;1.33;0.95;;;21.00;68.20;;;;;;5012811;28;20029;-50
2023/08/02 03:14:27;;;;;;;1.73;0.82;;;21.00;68.10;;;;;;5017065;28;20026;-52
2023/08/02 03:16:53;;;;;;;1.80;1.30;;;21.10;68.50;;;;;;5012836;28;20072;-51
2023/08/02 03:19:18;;;;;;;1.35;0.68;;;21.10;68.40;;;;;;5010871;28;20664;-51
2023/08/02 03:21:44;;;;;;;1.40;0.75;;;21.10;68.30;;;;;;5008791;28;20030;-51
2023/08/02 03:24:09;;;;;;;0.90;0.60;;;21.00;68.30;;;;;;5012844;28;20045;-52
2023/08/02 03:26:35;;;;;;;2.05;0.93;;;21.00;68.30;;;;;;5013306;28;20100;-52
2023/08/02 03:29:00;;;;;;;1.55;0.95;;;21.10;68.80;;;;;;5018777;28;20041;-50
2023/08/02 03:31:26;;;;;;;1.63;0.93;;;21.10;68.10;;;;;;5016105;28;20041;-51
2023/08/02 03:33:52;;;;;;;1.60;1.00;;;21.00;68.20;;;;;;5017511;28;20037;-53
2023/08/02 03:36:17;;;;;;;1.70;0.93;;;21.10;68.30;;;;;;5016469;28;20037;-52
2023/08/02 03:38:43;;;;;;;2.85;0.90;;;21.10;68.20;;;;;;5015266;28;20045;-54
2023/08/02 03:41:09;;;;;;;0.80;0.60;;;21.00;68.00;;;;;;5014665;28;20036;-50
2023/08/02 03:43:34;;;;;;;1.50;0.70;;;21.00;68.10;;;;;;5012984;28;20061;-55
2023/08/02 03:46:00;;;;;;;1.45;0.85;;;21.00;67.80;;;;;;5012620;28;20040;-51
2023/08/02 03:48:28;;;;;;;1.55;0.80;;;21.00;68.10;;;;;;5010806;28;20124;-54
2023/08/02 03:50:55;;;;;;;1.55;0.77;;;21.00;68.20;;;;;;5015246;28;20515;-54
2023/08/02 03:53:20;;;;;;;1.40;0.73;;;21.00;68.20;;;;;;5010849;28;20381;-52
2023/08/02 03:55:46;;;;;;;1.40;1.10;;;21.00;67.90;;;;;;5014362;28;20095;-53
2023/08/02 03:58:11;;;;;;;1.00;0.73;;;21.00;68.00;;;;;;5018420;28;20030;-52
2023/08/02 04:00:37;;;;;;;1.25;1.02;;;21.00;67.90;;;;;;5014026;28;20038;-53
2023/08/02 04:03:02;;;;;;;1.02;0.73;;;21.00;68.00;;;;;;5017808;28;20068;-50
2023/08/02 04:05:28;;;;;;;1.80;0.77;;;21.00;68.10;;;;;;5014677;28;20109;-53
2023/08/02 04:07:53;;;;;;;1.33;0.70;;;21.00;68.20;;;;;;5014917;28;20118;-52
2023/08/02 04:10:19;;;;;;;1.13;0.88;;;21.00;68.10;;;;;;5019387;28;20529;-50
2023/08/02 04:12:44;;;;;;;1.65;1.02;;;21.00;67.80;;;;;;5017656;28;20491;-53
2023/08/02 04:15:10;;;;;;;3.33;1.40;;;21.00;67.90;;;;;;5019777;28;20056;-50
2023/08/02 04:17:36;;;;;;;1.50;0.73;;;20.90;67.80;;;;;;5019760;28;20029;-51
2023/08/02 04:20:02;;;;;;;1.58;0.80;;;21.00;68.10;;;;;;5021550;28;20033;-53
2023/08/02 04:22:31;;;;;;;1.50;0.80;;;21.00;68.20;;;;;;5020422;28;20030;-51
2023/08/02 04:24:56;;;;;;;1.10;0.75;;;21.00;68.30;;;;;;5018933;28;20029;-52
2023/08/02 04:27:22;;;;;;;1.15;0.98;;;21.00;68.10;;;;;;5020553;28;20034;-50
2023/08/02 04:29:49;;;;;;;1.83;0.90;;;21.00;67.80;;;;;;5018281;28;20030;-53
2023/08/02 04:32:14;;;;;;;2.60;1.05;;;21.00;67.90;;;;;;5020625;28;20045;-50
2023/08/02 04:34:40;;;;;;;1.30;1.13;;;21.00;68.40;;;;;;5024516;28;20076;-51
2023/08/02 04:37:05;;;;;;;1.75;1.00;;;21.00;68.30;;;;;;5022459;28;20038;-52
2023/08/02 04:39:31;;;;;;;2.05;1.13;;;21.00;68.90;;;;;;5022914;28;20033;-51
2023/08/02 04:42:00;;;;;;;1.75;1.30;;;21.00;68.30;;;;;;5019213;28;20447;-50
2023/08/02 04:44:26;;;;;;;1.77;0.98;;;21.00;68.20;;;;;;5020156;28;20038;-50
2023/08/02 04:46:51;;;;;;;1.73;0.88;;;21.00;68.10;;;;;;5016486;28;20504;-52
2023/08/02 04:49:17;;;;;;;1.33;1.20;;;21.00;68.00;;;;;;5018716;28;20360;-50
2023/08/02 04:51:42;;;;;;;2.60;0.98;;;21.00;67.90;;;;;;5014341;28;20494;-50
2023/08/02 04:54:08;;;;;;;1.92;1.27;;;21.10;68.00;;;;;;5017365;28;20056;-53
2023/08/02 04:56:33;;;;;;;1.73;0.85;;;21.10;67.70;;;;;;5017676;28;20037;-53
2023/08/02 04:58:59;;;;;;;1.42;0.90;;;21.10;68.00;;;;;;5021418;28;20113;-52
2023/08/02 05:01:25;;;;;;;2.70;1.33;;;21.10;67.90;;;;;;5021841;28;20037;-50
2023/08/02 05:03:50;;;;;;;2.00;0.98;;;21.10;67.80;;;;;;5019810;28;20136;-51
2023/08/02 05:06:16;;;;;;;1.05;0.65;;;21.00;67.80;;;;;;5022235;28;20033;-54
2023/08/02 05:08:41;;;;;;;1.92;0.93;;;21.10;67.80;;;;;;5021189;28;20677;-51
2023/08/02 05:11:07;;;;;;;3.60;1.10;;;21.00;67.80;;;;;;5023580;28;20033;-51
2023/08/02 05:13:33;;;;;;;2.22;1.20;;;21.00;67.80;;;;;;5020971;28;20056;-53
2023/08/02 05:15:59;;;;;;;2.80;1.10;;;21.00;67.60;;;;;;5024716;28;20109;-52
2023/08/02 05:18:25;;;;;;;1.42;1.13;;;21.10;67.80;;;;;;5021388;28;20120;-50
2023/08/02 05:20:50;;;;;;;4.32;1.33;;;21.00;68.30;;;;;;5022329;28;20041;-55
2023/08/02 05:23:16;;;;;;;2.20;0.95;;;21.00;68.20;;;;;;5022290;28;20484;-50
2023/08/02 05:25:42;;;;;;;4.72;1.77;;;21.00;68.00;;;;;;5021270;28;20025;-53
2023/08/02 05:28:08;;;;;;;7.32;2.72;;;21.00;69.60;;;;;;5021393;28;20144;-50
2023/08/02 05:30:35;;;;;;;9.85;2.60;;;21.00;69.90;;;;;;5019417;28;20181;-53
2023/08/02 05:33:01;;;;;;;9.45;2.63;;;21.00;70.60;;;;;;5008188;28;20026;-51
2023/08/02 05:35:27;;;;;;;4.38;2.30;;;21.00;70.60;;;;;;5019307;28;20030;-54
2023/08/02 05:37:52;;;;;;;5.45;1.80;;;21.00;70.40;;;;;;5020793;28;20026;-50
2023/08/02 05:40:18;;;;;;;5.10;2.50;;;21.00;70.40;;;;;;5017884;28;20029;-50
2023/08/02 05:42:44;;;;;;;4.95;2.05;;;21.00;70.40;;;;;;5016114;28;20422;-51
2023/08/02 05:45:10;;;;;;;4.47;1.92;;;21.00;70.40;;;;;;5015531;28;20445;-50
2023/08/02 05:47:36;;;;;;;6.88;3.28;;;21.00;70.20;;;;;;5015464;28;20164;-52
2023/08/02 05:50:02;;;;;;;3.65;1.77;;;20.90;69.70;;;;;;5019630;28;20108;-51
2023/08/02 05:52:27;;;;;;;4.97;3.15;;;21.00;69.70;;;;;;5018186;28;20042;-51
2023/08/02 05:54:53;;;;;;;4.25;1.65;;;20.90;69.70;;;;;;5014608;28;20026;-50
2023/08/02 05:57:18;;;;;;;4.07;2.20;;;20.90;69.30;;;;;;5011108;28;20076;-50
2023/08/02 05:59:44;;;;;;;4.32;1.73;;;20.90;69.40;;;;;;5013677;28;20026;-50
2023/08/02 06:02:09;;;;;;;5.60;2.35;;;20.90;69.30;;;;;;5013803;28;20055;-50
2023/08/02 06:04:38;;;;;;;3.63;2.22;;;20.80;69.10;;;;;;5018262;28;20315;-50
2023/08/02 06:07:04;;;;;;;4.97;2.25;;;20.90;69.00;;;;;;5015508;28;20034;-50
2023/08/02 06:09:29;;;;;;;3.58;1.55;;;20.80;69.00;;;;;;5016331;28;20026;-54
2023/08/02 06:11:55;;;;;;;2.78;1.88;;;20.80;69.10;;;;;;5018532;28;20127;-51
2023/08/02 06:14:21;;;;;;;3.15;2.03;;;20.90;69.00;;;;;;5017938;28;20026;-51
2023/08/02 06:16:47;;;;;;;4.95;2.10;;;20.90;68.80;;;;;;5017915;28;20037;-50
2023/08/02 06:19:12;;;;;;;6.05;2.42;;;20.80;69.10;;;;;;5016042;28;20029;-51
2023/08/02 06:21:38;;;;;;;3.85;2.00;;;20.80;68.90;;;;;;5015955;28;20033;-50
2023/08/02 06:24:04;;;;;;;3.92;2.15;;;20.80;68.90;;;;;;5014832;28;20060;-50
2023/08/02 06:26:29;;;;;;;4.75;1.90;;;20.80;68.70;;;;;;5014928;28;20034;-50
2023/08/02 06:28:55;;;;;;;4.88;2.15;;;20.80;68.60;;;;;;5014211;28;20037;-49
2023/08/02 06:31:21;;;;;;;6.63;2.33;;;20.80;68.60;;;;;;5003025;28;20118;-52
2023/08/02 06:33:47;;;;;;;5.35;1.98;;;20.80;68.50;;;;;;5016032;28;20139;-50
2023/08/02 06:36:13;;;;;;;3.85;1.90;;;20.80;68.50;;;;;;5007156;28;20117;-50
2023/08/02 06:38:39;;;;;;;3.28;2.05;;;20.90;68.40;;;;;;5014789;28;20120;-50
2023/08/02 06:41:04;;;;;;;6.85;2.13;;;20.90;68.30;;;;;;5016665;28;20041;-52
2023/08/02 06:43:30;;;;;;;5.50;2.75;;;20.90;68.10;;;;;;5015979;28;20785;-49
2023/08/02 06:45:57;;;;;;;4.28;2.20;;;20.90;68.10;;;;;;5018536;28;20038;-54
2023/08/02 06:48:24;;;;;;;4.50;2.97;;;20.90;68.20;;;;;;5017188;28;20104;-51
2023/08/02 06:50:51;;;;;;;3.50;2.00;;;20.90;68.40;;;;;;5017317;28;20030;-53
2023/08/02 06:53:17;;;;;;;3.60;1.75;;;20.80;68.30;;;;;;5012392;28;20033;-54
2023/08/02 06:55:42;;;;;;;3.72;1.60;;;20.80;68.20;;;;;;5016883;28;20030;-52
2023/08/02 06:58:08;;;;;;;5.43;2.20;;;20.80;68.10;;;;;;5017864;28;20041;-50
2023/08/02 07:00:33;;;;;;;3.85;2.15;;;20.80;68.20;;;;;;5019180;28;20080;-51
2023/08/02 07:03:00;;;;;;;5.13;2.20;;;20.70;68.10;;;;;;5016531;28;20073;-50
2023/08/02 07:05:28;;;;;;;5.00;2.15;;;20.80;68.60;;;;;;5018008;28;20069;-50
2023/08/02 07:07:58;;;;;;;4.78;2.28;;;20.90;69.50;;;;;;5012899;28;20054;-52
2023/08/02 07:10:27;;;;;;;4.25;1.63;;;20.90;69.10;;;;;;5013820;28;20029;-51
2023/08/02 07:12:54;;;;;;;3.25;1.90;;;20.90;68.80;;;;;;5015410;28;20021;-50
2023/08/02 07:15:20;;;;;;;7.88;2.92;;;20.90;69.00;;;;;;5015243;28;20104;-51
2023/08/02 07:17:46;;;;;;;4.13;1.92;;;20.90;68.80;;;;;;5015574;28;20036;-50
2023/08/02 07:20:12;;;;;;;4.47;1.90;;;20.90;68.50;;;;;;5012379;28;20515;-51
2023/08/02 07:22:39;;;;;;;5.05;2.00;;;20.90;68.60;;;;;;5017828;28;20120;-50
2023/08/02 07:25:05;;;;;;;4.90;2.72;;;20.90;68.50;;;;;;5016193;28;20045;-50
2023/08/02 07:27:31;;;;;;;4.05;2.33;;;20.90;68.40;;;;;;5016548;28;20294;-50
2023/08/02 07:29:56;;;;;;;3.88;1.80;;;20.90;68.50;;;;;;5014608;28;20038;-51
2023/08/02 07:32:25;;;;;;;3.28;1.80;;;20.90;68.50;;;;;;5000006;28;20025;-50
2023/08/02 07:34:51;;;;;;;4.28;1.90;;;20.80;68.50;;;;;;5014527;28;20033;-49
2023/08/02 07:37:17;;;;;;;4.43;2.30;;;20.90;68.40;;;;;;5000798;28;20025;-50
2023/08/02 07:39:42;;;;;;;4.45;1.83;;;20.90;68.10;;;;;;5014177;28;20202;-52
2023/08/02 07:42:08;;;;;;;4.28;2.17;;;20.90;68.10;;;;;;5014149;28;20029;-50
2023/08/02 07:44:34;;;;;;;3.05;1.80;;;20.90;68.80;;;;;;5015977;28;20030;-53
2023/08/02 07:46:59;;;;;;;3.58;1.83;;;20.90;68.30;;;;;;5016610;28;20519;-50
2023/08/02 07:49:25;;;;;;;4.88;1.85;;;20.90;68.30;;;;;;5017700;28;20794;-52
2023/08/02 07:51:50;;;;;;;3.03;2.15;;;20.90;68.10;;;;;;5008878;28;20034;-51
2023/08/02 07:54:16;;;;;;;4.97;1.63;;;20.90;68.30;;;;;;5016484;28;20403;-50
2023/08/02 07:56:41;;;;;;;3.78;2.20;;;20.90;68.10;;;;;;5013517;28;20112;-50
2023/08/02 07:59:07;;;;;;;4.95;1.95;;;20.90;68.20;;;;;;5013289;28;20031;-52
2023/08/02 08:01:33;;;;;;;4.28;2.33;;;20.90;68.40;;;;;;5016069;28;20106;-50
2023/08/02 08:03:58;;;;;;;5.85;3.25;;;20.90;68.20;;;;;;5013219;28;20045;-54
2023/08/02 08:06:25;;;;;;;4.72;2.20;;;20.90;68.20;;;;;;5014537;28;20033;-50
2023/08/02 08:08:51;;;;;;;3.00;2.05;;;20.90;68.30;;;;;;5018321;28;20061;-51
2023/08/02 08:11:17;;;;;;;2.92;1.75;;;20.90;68.10;;;;;;5019116;28;20053;-51
2023/08/02 08:13:42;;;;;;;2.72;2.03;;;20.90;68.00;;;;;;5020766;28;20089;-54
2023/08/02 08:16:08;;;;;;;2.80;1.92;;;20.90;68.20;;;;;;5021785;28;20457;-50
2023/08/02 08:18:34;;;;;;;2.42;1.75;;;20.90;68.30;;;;;;5022453;28;20033;-50
2023/08/02 08:21:04;;;;;;;3.22;2.60;;;20.90;68.20;;;;;;5016179;28;20399;-53
2023/08/02 08:23:30;;;;;;;2.83;2.20;;;20.90;68.10;;;;;;5018605;28;20117;-51
2023/08/02 08:25:56;;;;;;;6.05;2.25;;;20.90;68.20;;;;;;5018797;28;20509;-53
2023/08/02 08:28:22;;;;;;;5.95;2.20;;;20.90;67.90;;;;;;5022173;28;20030;-52
2023/08/02 08:30:47;;;;;;;2.80;1.88;;;20.90;67.90;;;;;;5010195;28;20120;-51
2023/08/02 08:33:13;;;;;;;2.95;2.03;;;20.90;67.70;;;;;;5022378;28;20116;-53
2023/08/02 08:35:38;;;;;;;3.90;2.28;;;20.90;67.80;;;;;;5021236;28;20057;-50
2023/08/02 08:38:04;;;;;;;2.95;2.05;;;20.90;67.90;;;;;;5021232;28;20041;-51
2023/08/02 08:40:32;;;;;;;4.05;2.47;;;20.90;67.80;;;;;;5019898;28;20064;-53
2023/08/02 08:42:58;;;;;;;3.22;1.70;;;20.90;67.60;;;;;;5021351;28;20030;-53
2023/08/02 08:45:25;;;;;;;3.65;2.53;;;20.80;67.50;;;;;;5021034;28;20749;-50
2023/08/02 08:47:51;;;;;;;2.30;1.95;;;20.90;67.40;;;;;;5023871;28;20037;-49
2023/08/02 08:50:19;;;;;;;3.63;2.05;;;20.80;67.30;;;;;;5016911;28;20041;-51
2023/08/02 08:52:47;;;;;;;6.53;2.17;;;20.80;67.20;;;;;;5019599;28;20030;-50
2023/08/02 08:55:14;;;;;;;2.45;1.90;;;20.80;66.90;;;;;;5017889;28;20117;-50
2023/08/02 08:57:40;;;;;;;5.28;2.60;;;20.90;67.10;;;;;;5019151;28;20078;-50
2023/08/02 09:00:08;;;;;;;4.65;2.20;;;20.90;67.00;;;;;;5021080;28;20037;-52
2023/08/02 09:02:35;;;;;;;3.05;2.13;;;20.80;66.80;;;;;;5021622;28;20053;-50
2023/08/02 09:05:04;;;;;;;3.00;2.10;;;20.90;67.00;;;;;;5019266;28;20514;-49
2023/08/02 09:07:31;;;;;;;4.20;2.30;;;20.90;66.90;;;;;;5020747;28;20156;-53
2023/08/02 09:09:56;;;;;;;3.83;2.28;;;20.90;66.70;;;;;;5017698;28;20030;-54
2023/08/02 09:12:25;;;;;;;3.97;2.38;;;20.90;67.00;;;;;;5021273;28;20045;-51
2023/08/02 09:15:02;;;;;;;3.20;2.45;;;20.90;67.00;;;;;;5021330;28;20036;-50
2023/08/02 09:17:51;;;;;;;2.90;2.15;;;20.90;66.90;;;;;;5018144;28;20037;-53
2023/08/02 09:20:18;;;;;;;3.45;2.20;;;20.90;66.80;;;;;;5016989;28;20037;-50
2023/08/02 09:22:44;;;;;;;5.10;2.38;;;20.80;66.70;;;;;;5016238;28;20139;-50
2023/08/02 09:25:26;;;;;;;3.42;2.20;;;20.80;66.70;;;;;;5017256;28;20026;-50
2023/08/02 09:27:54;;;;;;;4.97;2.25;;;20.80;66.10;;;;;;5016112;28;20156;-49
2023/08/02 09:30:23;;;;;;;5.30;1.98;;;20.80;66.50;;;;;;5018260;28;20033;-51
2023/08/02 09:33:01;;;;;;;6.68;2.90;;;20.80;65.90;;;;;;5017435;28;20030;-50
2023/08/02 09:35:27;;;;;;;3.75;2.17;;;20.80;66.00;;;;;;5013908;28;20029;-51
2023/08/02 09:37:53;;;;;;;3.72;1.88;;;20.80;66.00;;;;;;5014072;28;20625;-50
2023/08/02 09:40:32;;;;;;;3.03;2.28;;;20.90;65.70;;;;;;5014235;28;20041;-53
2023/08/02 09:42:58;;;;;;;3.92;2.35;;;20.90;65.70;;;;;;5015612;28;20030;-52
2023/08/02 09:45:31;;;;;;;3.45;2.10;;;20.90;65.80;;;;;;5016778;28;20056;-54
2023/08/02 09:47:56;;;;;;;3.53;2.20;;;20.90;65.80;;;;;;5014214;28;20411;-50
2023/08/02 09:50:22;;;;;;;5.22;2.20;;;20.90;65.90;;;;;;5022136;28;20034;-51
2023/08/02 09:52:47;;;;;;;2.50;2.00;;;20.90;65.80;;;;;;5015311;28;20827;-50
2023/08/02 09:55:13;;;;;;;2.97;1.75;;;21.00;65.70;;;;;;5023721;28;20033;-50
2023/08/02 09:57:43;;;;;;;3.47;1.95;;;20.90;65.60;;;;;;5019306;28;20026;-49
2023/08/02 10:00:10;;;;;;;4.45;1.90;;;21.00;65.70;;;;;;5018770;28;20549;-50
2023/08/02 10:02:36;;;;;;;3.30;1.83;;;21.00;65.40;;;;;;5022412;28;20376;-51
2023/08/02 10:05:03;;;;;;;1.90;1.48;;;21.00;65.60;;;;;;5015993;28;20030;-51
2023/08/02 10:07:43;;;;;;;2.95;1.73;;;21.00;65.60;;;;;;5022625;28;20040;-50
2023/08/02 10:10:31;;;;;;;2.55;1.92;;;21.00;65.60;;;;;;5021551;28;20112;-51
2023/08/02 10:13:01;;;;;;;4.10;1.83;;;21.00;65.10;;;;;;5015675;28;20037;-51
2023/08/02 10:15:27;;;;;;;2.08;1.55;;;21.00;65.30;;;;;;5016224;28;20033;-50
2023/08/02 10:17:55;;;;;;;2.60;1.80;;;21.00;65.50;;;;;;5015136;28;20227;-50
2023/08/02 10:20:21;;;;;;;3.08;1.88;;;21.00;65.80;;;;;;5012305;28;20946;-52
2023/08/02 10:22:49;;;;;;;4.45;1.80;;;20.90;65.50;;;;;;5014405;28;20033;-51
2023/08/02 10:25:16;;;;;;;3.00;1.95;;;21.00;65.70;;;;;;5011319;28;20037;-51
2023/08/02 10:27:44;;;;;;;2.55;1.92;;;20.90;65.80;;;;;;5014604;28;20029;-54
2023/08/02 10:30:11;;;;;;;3.80;1.73;;;20.90;65.80;;;;;;5010747;28;20487;-50
2023/08/02 10:32:37;;;;;;;3.42;2.13;;;21.00;66.30;;;;;;5016772;28;20029;-52
2023/08/02 10:35:02;;;;;;;3.67;1.92;;;21.00;66.00;;;;;;5017254;28;20033;-51
2023/08/02 10:37:52;;;;;;;2.58;1.63;;;21.00;66.00;;;;;;5018324;28;20033;-51
2023/08/02 10:40:21;;;;;;;3.60;1.98;;;21.00;66.20;;;;;;5015247;28;20044;-50
2023/08/02 10:43:07;;;;;;;3.13;1.67;;;21.00;66.00;;;;;;5016040;28;20046;-53
2023/08/02 10:45:33;;;;;;;3.22;1.80;;;21.10;66.20;;;;;;5016253;28;20042;-51
2023/08/02 10:48:21;;;;;;;3.05;2.00;;;21.00;66.30;;;;;;5017212;28;20132;-50
2023/08/02 10:50:48;;;;;;;2.83;1.90;;;21.00;66.10;;;;;;5015057;28;20048;-49
2023/08/02 10:53:14;;;;;;;3.47;1.90;;;21.00;66.30;;;;;;5017173;28;20123;-50
2023/08/02 10:56:03;;;;;;;2.70;1.88;;;21.00;66.10;;;;;;5018468;28;20209;-50
2023/08/02 10:58:45;;;;;;;4.35;1.73;;;21.10;66.30;;;;;;5016328;28;20029;-51
2023/08/02 11:01:10;;;;;;;3.00;1.67;;;21.10;66.60;;;;;;5016506;28;20369;-51
2023/08/02 11:03:37;;;;;;;4.00;1.83;;;21.00;66.60;;;;;;5015032;28;20044;-50
2023/08/02 11:06:03;;;;;;;2.75;1.40;;;21.10;66.70;;;;;;5016468;28;20479;-54
2023/08/02 11:08:29;;;;;;;4.72;1.58;;;21.10;67.00;;;;;;5012011;28;20079;-51
2023/08/02 11:10:55;;;;;;;3.22;1.90;;;21.10;66.90;;;;;;5013740;28;20120;-50
2023/08/02 11:13:23;;;;;;;2.78;1.40;;;21.10;66.90;;;;;;5013130;28;20052;-50
2023/08/02 11:16:02;;;;;;;2.13;1.33;;;21.10;67.00;;;;;;5015084;28;20048;-51
2023/08/02 11:18:31;;;;;;;2.83;1.52;;;21.10;66.80;;;;;;5013080;28;20058;-49
2023/08/02 11:21:13;;;;;;;2.13;1.50;;;21.10;66.70;;;;;;5017945;28;20511;-51
2023/08/02 11:23:39;;;;;;;2.63;1.63;;;21.00;66.60;;;;;;5012137;28;20067;-51
2023/08/02 11:26:12;;;;;;;1.52;1.30;;;21.00;66.70;;;;;;5012473;28;20177;-52
2023/08/02 11:28:48;;;;;;;2.70;1.60;;;21.00;67.50;;;;;;5012599;28;20061;-51
2023/08/02 11:31:14;;;;;;;4.38;1.75;;;21.00;66.70;;;;;;5002229;28;20061;-52
2023/08/02 11:33:40;;;;;;;1.85;1.50;;;21.10;66.80;;;;;;5014703;28;20030;-49
2023/08/02 11:36:06;;;;;;;2.08;1.60;;;21.10;66.90;;;;;;5014640;28;20053;-51
2023/08/02 11:38:32;;;;;;;3.47;1.58;;;21.10;66.70;;;;;;5005496;28;20049;-51
2023/08/02 11:40:59;;;;;;;2.65;1.58;;;21.00;66.80;;;;;;5011633;28;20063;-50
2023/08/02 11:43:34;;;;;;;2.63;1.73;;;21.10;66.60;;;;;;5011475;28;20037;-50
2023/08/02 11:46:00;;;;;;;2.20;1.30;;;21.00;66.60;;;;;;5014553;28;20476;-50
2023/08/02 11:48:25;;;;;;;3.47;1.50;;;21.00;66.70;;;;;;5015572;28;20087;-53
2023/08/02 11:50:53;;;;;;;2.10;1.63;;;21.00;67.20;;;;;;5016818;28;20022;-50
2023/08/02 11:53:18;;;;;;;2.38;1.38;;;21.00;66.50;;;;;;5013049;28;20029;-53
2023/08/02 11:55:44;;;;;;;2.25;1.70;;;21.00;66.50;;;;;;5013261;28;20548;-51
2023/08/02 11:58:10;;;;;;;3.80;1.75;;;21.00;66.70;;;;;;5010908;28;20045;-51
2023/08/02 12:00:37;;;;;;;2.65;1.35;;;21.10;66.80;;;;;;5015539;28;20025;-50
2023/08/02 12:03:14;;;;;;;3.70;1.50;;;21.10;66.90;;;;;;5015132;28;20066;-50
2023/08/02 12:05:41;;;;;;;4.65;2.30;;;21.10;66.50;;;;;;5015365;28;20040;-50
2023/08/02 12:08:12;;;;;;;2.65;1.50;;;21.10;66.80;;;;;;5013767;28;20038;-51
2023/08/02 12:10:38;;;;;;;1.95;1.30;;;21.10;66.90;;;;;;5011495;28;20068;-51
2023/08/02 12:13:14;;;;;;;1.63;1.45;;;21.10;67.10;;;;;;5012385;28;20087;-53
2023/08/02 12:15:41;;;;;;;4.03;1.33;;;21.10;67.00;;;;;;5012175;28;20092;-49
2023/08/02 12:18:07;;;;;;;3.53;1.40;;;21.10;67.20;;;;;;5014185;28;20036;-54
2023/08/02 12:20:34;;;;;;;4.40;1.55;;;21.10;67.20;;;;;;5014667;28;20041;-51
2023/08/02 12:23:00;;;;;;;2.03;1.55;;;21.10;67.30;;;;;;5013826;28;20125;-51
2023/08/02 12:25:26;;;;;;;2.65;1.35;;;21.10;67.40;;;;;;5012920;28;20033;-51
2023/08/02 12:28:08;;;;;;;5.38;1.73;;;21.10;67.50;;;;;;5011963;28;20033;-51
2023/08/02 12:30:34;;;;;;;2.60;1.30;;;21.10;67.60;;;;;;5016467;28;20434;-52
2023/08/02 12:32:59;;;;;;;2.40;1.42;;;21.10;67.60;;;;;;5014643;28;20022;-50
2023/08/02 12:35:25;;;;;;;1.92;1.63;;;21.10;68.10;;;;;;5015253;28;20064;-51
2023/08/02 12:37:51;;;;;;;2.53;1.35;;;21.10;68.00;;;;;;5012879;28;20029;-51
2023/08/02 12:40:17;;;;;;;3.67;1.60;;;21.10;68.00;;;;;;5015193;28;20769;-51
2023/08/02 12:42:43;;;;;;;1.40;1.20;;;21.20;67.90;;;;;;5011860;28;20132;-50
2023/08/02 12:45:09;;;;;;;3.30;1.20;;;21.10;68.00;;;;;;5012091;28;20548;-50
2023/08/02 12:47:34;;;;;;;2.45;1.30;;;21.10;68.20;;;;;;5014641;28;20049;-50